sensor_id;sensor_type;location;lat;lon;timestamp;pressure;altitude;pressure_sealevel;temperature;humidity
74327;BME280;62745;51.060;13.786;2024-01-15T00:02:14;98339.06;;;1.70;91.93
74327;BME280;62745;51.060;13.786;2024-01-15T00:04:40;98347.41;;;1.73;91.61
74327;BME280;62745;51.060;13.786;2024-01-15T00:07:06;98347.03;;;1.76;91.69
74327;BME280;62745;51.060;13.786;2024-01-15T00:09:32;98345.03;;;1.78;90.98
74327;BME280;62745;51.060;13.786;2024-01-15T00:11:59;98335.88;;;1.74;91.24
74327;BME280;62745;51.060;13.786;2024-01-15T00:14:24;98328.88;;;1.67;90.95
74327;BME280;62745;51.060;13.786;2024-01-15T00:16:49;98340.06;;;1.69;91.50
74327;BME280;62745;51.060;13.786;2024-01-15T00:19:16;98336.25;;;1.71;91.71
74327;BME280;62745;51.060;13.786;2024-01-15T00:21:42;98339.41;;;1.67;91.28
74327;BME280;62745;51.060;13.786;2024-01-15T00:24:07;98329.06;;;1.65;91.69
74327;BME280;62745;51.060;13.786;2024-01-15T00:26:33;98324.97;;;1.63;91.62
74327;BME280;62745;51.060;13.786;2024-01-15T00:28:58;98319.91;;;1.61;92.29
74327;BME280;62745;51.060;13.786;2024-01-15T00:31:23;98313.56;;;1.56;92.23
74327;BME280;62745;51.060;13.786;2024-01-15T00:33:48;98333.25;;;1.60;92.85
74327;BME280;62745;51.060;13.786;2024-01-15T00:36:14;98326.72;;;1.56;93.35
74327;BME280;62745;51.060;13.786;2024-01-15T00:38:40;98315.91;;;1.50;92.95
74327;BME280;62745;51.060;13.786;2024-01-15T00:41:05;98326.09;;;1.54;92.67
74327;BME280;62745;51.060;13.786;2024-01-15T00:43:30;98309.75;;;1.58;92.56
74327;BME280;62745;51.060;13.786;2024-01-15T00:45:55;98324.78;;;1.49;93.74
74327;BME280;62745;51.060;13.786;2024-01-15T00:48:21;98316.56;;;1.53;93.45
74327;BME280;62745;51.060;13.786;2024-01-15T00:50:46;98314.00;;;1.59;93.05
74327;BME280;62745;51.060;13.786;2024-01-15T00:53:12;98326.91;;;1.54;92.51
74327;BME280;62745;51.060;13.786;2024-01-15T00:55:37;98316.56;;;1.53;93.13
74327;BME280;62745;51.060;13.786;2024-01-15T00:58:03;98316.09;;;1.49;93.39
74327;BME280;62745;51.060;13.786;2024-01-15T01:00:28;98306.47;;;1.56;93.20
74327;BME280;62745;51.060;13.786;2024-01-15T01:02:53;98314.19;;;1.58;92.23
74327;BME280;62745;51.060;13.786;2024-01-15T01:05:19;98289.97;;;1.47;92.77
74327;BME280;62745;51.060;13.786;2024-01-15T01:07:44;98299.31;;;1.50;92.33
74327;BME280;62745;51.060;13.786;2024-01-15T01:10:09;98294.41;;;1.47;92.01
74327;BME280;62745;51.060;13.786;2024-01-15T01:12:34;98294.41;;;1.47;92.56
74327;BME280;62745;51.060;13.786;2024-01-15T01:15:00;98300.94;;;1.51;92.63
74327;BME280;62745;51.060;13.786;2024-01-15T01:17:25;98290.41;;;1.51;91.97
74327;BME280;62745;51.060;13.786;2024-01-15T01:19:50;98286.50;;;1.47;92.45
74327;BME280;62745;51.060;13.786;2024-01-15T01:22:16;98273.19;;;1.48;92.20
74327;BME280;62745;51.060;13.786;2024-01-15T01:24:41;98284.69;;;1.47;91.35
74327;BME280;62745;51.060;13.786;2024-01-15T01:27:06;98271.66;;;1.39;92.54
74327;BME280;62745;51.060;13.786;2024-01-15T01:29:32;98309.66;;;1.37;91.41
74327;BME280;62745;51.060;13.786;2024-01-15T01:31:57;98272.47;;;1.40;92.42
74327;BME280;62745;51.060;13.786;2024-01-15T01:34:22;98268.22;;;1.39;92.47
74327;BME280;62745;51.060;13.786;2024-01-15T01:36:48;98295.69;;;1.36;92.46
74327;BME280;62745;51.060;13.786;2024-01-15T01:39:13;98260.84;;;1.34;92.33
74327;BME280;62745;51.060;13.786;2024-01-15T01:41:39;98259.88;;;1.35;92.62
74327;BME280;62745;51.060;13.786;2024-01-15T01:44:05;98272.72;;;1.30;91.76
74327;BME280;62745;51.060;13.786;2024-01-15T01:46:30;98258.41;;;1.33;91.68
74327;BME280;62745;51.060;13.786;2024-01-15T01:48:57;98255.69;;;1.26;91.81
74327;BME280;62745;51.060;13.786;2024-01-15T01:51:24;98267.84;;;1.27;92.24
74327;BME280;62745;51.060;13.786;2024-01-15T01:53:50;98260.13;;;1.26;92.33
74327;BME280;62745;51.060;13.786;2024-01-15T01:56:17;98270.22;;;1.22;92.33
74327;BME280;62745;51.060;13.786;2024-01-15T01:58:43;98272.28;;;1.27;92.60
74327;BME280;62745;51.060;13.786;2024-01-15T02:01:09;98264.38;;;1.12;92.32
74327;BME280;62745;51.060;13.786;2024-01-15T02:03:34;98305.75;;;1.18;91.52
74327;BME280;62745;51.060;13.786;2024-01-15T02:06:00;98247.97;;;1.25;91.04
74327;BME280;62745;51.060;13.786;2024-01-15T02:08:26;98249.63;;;1.26;91.37
74327;BME280;62745;51.060;13.786;2024-01-15T02:10:51;98236.66;;;1.24;90.42
74327;BME280;62745;51.060;13.786;2024-01-15T02:13:17;98246.16;;;1.25;90.92
74327;BME280;62745;51.060;13.786;2024-01-15T02:15:43;98245.63;;;1.30;90.32
74327;BME280;62745;51.060;13.786;2024-01-15T02:18:08;98243.34;;;1.27;90.63
74327;BME280;62745;51.060;13.786;2024-01-15T02:20:33;98247.25;;;1.31;90.25
74327;BME280;62745;51.060;13.786;2024-01-15T02:23:09;98249.25;;;1.29;90.16
74327;BME280;62745;51.060;13.786;2024-01-15T02:25:37;98240.66;;;1.35;91.03
74327;BME280;62745;51.060;13.786;2024-01-15T02:28:03;98235.47;;;1.27;90.22
74327;BME280;62745;51.060;13.786;2024-01-15T02:30:30;98245.34;;;1.25;91.62
74327;BME280;62745;51.060;13.786;2024-01-15T02:32:55;98258.06;;;1.21;90.13
74327;BME280;62745;51.060;13.786;2024-01-15T02:35:20;98242.72;;;1.25;91.23
74327;BME280;62745;51.060;13.786;2024-01-15T02:37:46;98230.66;;;1.15;91.02
74327;BME280;62745;51.060;13.786;2024-01-15T02:40:11;98231.22;;;1.11;91.33
74327;BME280;62745;51.060;13.786;2024-01-15T02:42:36;98219.63;;;1.20;92.21
74327;BME280;62745;51.060;13.786;2024-01-15T02:45:01;98225.94;;;1.11;92.98
74327;BME280;62745;51.060;13.786;2024-01-15T02:47:27;98216.25;;;1.11;91.12
74327;BME280;62745;51.060;13.786;2024-01-15T02:49:52;98229.38;;;1.11;90.87
74327;BME280;62745;51.060;13.786;2024-01-15T02:52:17;98213.63;;;1.11;90.21
74327;BME280;62745;51.060;13.786;2024-01-15T02:54:43;98199.84;;;1.09;89.83
74327;BME280;62745;51.060;13.786;2024-01-15T02:57:08;98210.81;;;1.13;90.83
74327;BME280;62745;51.060;13.786;2024-01-15T02:59:33;98210.53;;;1.08;90.70
74327;BME280;62745;51.060;13.786;2024-01-15T03:01:59;98211.28;;;1.02;90.59
74327;BME280;62745;51.060;13.786;2024-01-15T03:04:24;98203.84;;;1.05;90.59
74327;BME280;62745;51.060;13.786;2024-01-15T03:06:49;98196.22;;;1.10;90.45
74327;BME280;62745;51.060;13.786;2024-01-15T03:09:14;98205.09;;;1.09;90.02
74327;BME280;62745;51.060;13.786;2024-01-15T03:11:40;98204.47;;;1.07;90.92
74327;BME280;62745;51.060;13.786;2024-01-15T03:14:06;98196.94;;;1.04;90.51
74327;BME280;62745;51.060;13.786;2024-01-15T03:16:31;98198.41;;;1.07;90.50
74327;BME280;62745;51.060;13.786;2024-01-15T03:18:56;98203.22;;;1.03;90.53
74327;BME280;62745;51.060;13.786;2024-01-15T03:21:22;98184.50;;;0.98;90.43
74327;BME280;62745;51.060;13.786;2024-01-15T03:23:47;98213.09;;;1.01;90.26
74327;BME280;62745;51.060;13.786;2024-01-15T03:26:12;98242.16;;;1.00;89.87
74327;BME280;62745;51.060;13.786;2024-01-15T03:28:37;98205.53;;;0.98;89.99
74327;BME280;62745;51.060;13.786;2024-01-15T03:31:03;98198.94;;;1.02;89.65
74327;BME280;62745;51.060;13.786;2024-01-15T03:33:28;98212.78;;;0.96;88.86
74327;BME280;62745;51.060;13.786;2024-01-15T03:35:53;98215.25;;;0.98;89.46
74327;BME280;62745;51.060;13.786;2024-01-15T03:38:18;98209.91;;;0.91;89.55
74327;BME280;62745;51.060;13.786;2024-01-15T03:40:44;98220.59;;;0.89;89.41
74327;BME280;62745;51.060;13.786;2024-01-15T03:43:09;98217.97;;;0.89;88.87
74327;BME280;62745;51.060;13.786;2024-01-15T03:45:34;98224.84;;;0.90;89.62
74327;BME280;62745;51.060;13.786;2024-01-15T03:47:59;98210.78;;;0.83;89.39
74327;BME280;62745;51.060;13.786;2024-01-15T03:50:25;98237.44;;;0.80;89.69
74327;BME280;62745;51.060;13.786;2024-01-15T03:52:50;98230.91;;;0.76;90.70
74327;BME280;62745;51.060;13.786;2024-01-15T03:55:15;98227.47;;;0.76;90.22
74327;BME280;62745;51.060;13.786;2024-01-15T03:57:41;98228.28;;;0.76;90.92
74327;BME280;62745;51.060;13.786;2024-01-15T04:00:07;98219.50;;;0.69;91.17
74327;BME280;62745;51.060;13.786;2024-01-15T04:02:32;98214.75;;;0.65;92.64
74327;BME280;62745;51.060;13.786;2024-01-15T04:04:58;98211.84;;;0.59;92.47
74327;BME280;62745;51.060;13.786;2024-01-15T04:07:23;98209.16;;;0.53;92.77
74327;BME280;62745;51.060;13.786;2024-01-15T04:09:48;98228.63;;;0.58;92.33
74327;BME280;62745;51.060;13.786;2024-01-15T04:12:13;98228.63;;;0.58;93.74
74327;BME280;62745;51.060;13.786;2024-01-15T04:14:39;98218.09;;;0.58;93.15
74327;BME280;62745;51.060;13.786;2024-01-15T04:17:04;98224.38;;;0.57;92.82
74327;BME280;62745;51.060;13.786;2024-01-15T04:19:29;98190.75;;;0.53;92.22
74327;BME280;62745;51.060;13.786;2024-01-15T04:21:54;98206.59;;;0.59;92.92
74327;BME280;62745;51.060;13.786;2024-01-15T04:24:20;98202.91;;;0.54;93.36
74327;BME280;62745;51.060;13.786;2024-01-15T04:26:45;98188.56;;;0.42;93.58
74327;BME280;62745;51.060;13.786;2024-01-15T04:29:10;98191.75;;;0.52;93.42
74327;BME280;62745;51.060;13.786;2024-01-15T04:31:36;98203.06;;;0.52;93.04
74327;BME280;62745;51.060;13.786;2024-01-15T04:34:01;98196.69;;;0.47;92.69
74327;BME280;62745;51.060;13.786;2024-01-15T04:36:26;98195.38;;;0.51;92.07
74327;BME280;62745;51.060;13.786;2024-01-15T04:38:51;98200.25;;;0.54;91.75
74327;BME280;62745;51.060;13.786;2024-01-15T04:41:17;98208.50;;;0.51;91.52
74327;BME280;62745;51.060;13.786;2024-01-15T04:43:42;98191.91;;;0.50;90.34
74327;BME280;62745;51.060;13.786;2024-01-15T04:46:08;98187.31;;;0.52;90.90
74327;BME280;62745;51.060;13.786;2024-01-15T04:48:33;98178.63;;;0.52;90.24
74327;BME280;62745;51.060;13.786;2024-01-15T04:50:59;98193.44;;;0.45;90.32
74327;BME280;62745;51.060;13.786;2024-01-15T04:53:24;98190.19;;;0.43;90.34
74327;BME280;62745;51.060;13.786;2024-01-15T04:55:50;98186.91;;;0.41;90.09
74327;BME280;62745;51.060;13.786;2024-01-15T04:58:15;98171.53;;;0.38;90.24
74327;BME280;62745;51.060;13.786;2024-01-15T05:00:40;98181.22;;;0.37;90.48
74327;BME280;62745;51.060;13.786;2024-01-15T05:03:05;98194.22;;;0.30;90.84
74327;BME280;62745;51.060;13.786;2024-01-15T05:05:31;98226.44;;;0.24;90.64
74327;BME280;62745;51.060;13.786;2024-01-15T05:07:56;98197.91;;;0.21;90.84
74327;BME280;62745;51.060;13.786;2024-01-15T05:10:21;98211.22;;;0.20;90.91
74327;BME280;62745;51.060;13.786;2024-01-15T05:12:46;98195.16;;;0.15;91.09
74327;BME280;62745;51.060;13.786;2024-01-15T05:15:12;98204.53;;;0.17;91.42
74327;BME280;62745;51.060;13.786;2024-01-15T05:17:37;98212.22;;;0.19;91.45
74327;BME280;62745;51.060;13.786;2024-01-15T05:20:02;98228.78;;;0.19;91.07
74327;BME280;62745;51.060;13.786;2024-01-15T05:22:28;98229.66;;;0.12;91.41
74327;BME280;62745;51.060;13.786;2024-01-15T05:24:53;98204.97;;;0.21;91.91
74327;BME280;62745;51.060;13.786;2024-01-15T05:27:19;98221.72;;;0.20;92.12
74327;BME280;62745;51.060;13.786;2024-01-15T05:29:44;98219.22;;;0.26;92.21
74327;BME280;62745;51.060;13.786;2024-01-15T05:32:09;98236.59;;;0.27;91.97
74327;BME280;62745;51.060;13.786;2024-01-15T05:34:35;98222.47;;;0.28;91.58
74327;BME280;62745;51.060;13.786;2024-01-15T05:37:00;98221.84;;;0.26;90.83
74327;BME280;62745;51.060;13.786;2024-01-15T05:39:25;98219.38;;;0.25;91.15
74327;BME280;62745;51.060;13.786;2024-01-15T05:41:50;98199.28;;;0.17;91.30
74327;BME280;62745;51.060;13.786;2024-01-15T05:44:15;98234.50;;;0.23;90.66
74327;BME280;62745;51.060;13.786;2024-01-15T05:46:41;98198.78;;;0.14;90.34
74327;BME280;62745;51.060;13.786;2024-01-15T05:49:06;98213.13;;;0.26;91.05
74327;BME280;62745;51.060;13.786;2024-01-15T05:51:31;98223.47;;;0.27;89.81
74327;BME280;62745;51.060;13.786;2024-01-15T05:53:56;98218.34;;;0.34;89.96
74327;BME280;62745;51.060;13.786;2024-01-15T05:56:22;98250.19;;;0.31;89.89
74327;BME280;62745;51.060;13.786;2024-01-15T05:58:49;98208.06;;;0.24;89.90
74327;BME280;62745;51.060;13.786;2024-01-15T06:01:14;98213.59;;;0.29;89.50
74327;BME280;62745;51.060;13.786;2024-01-15T06:03:39;98215.72;;;0.34;90.62
74327;BME280;62745;51.060;13.786;2024-01-15T06:06:05;98216.69;;;0.33;88.93
74327;BME280;62745;51.060;13.786;2024-01-15T06:08:30;98206.84;;;0.35;88.71
74327;BME280;62745;51.060;13.786;2024-01-15T06:10:56;98197.97;;;0.36;87.65
74327;BME280;62745;51.060;13.786;2024-01-15T06:13:21;98201.88;;;0.40;88.75
74327;BME280;62745;51.060;13.786;2024-01-15T06:15:46;98205.03;;;0.36;87.62
74327;BME280;62745;51.060;13.786;2024-01-15T06:18:12;98198.25;;;0.41;87.44
74327;BME280;62745;51.060;13.786;2024-01-15T06:20:37;98192.63;;;0.44;87.17
74327;BME280;62745;51.060;13.786;2024-01-15T06:23:03;98194.16;;;0.39;85.70
74327;BME280;62745;51.060;13.786;2024-01-15T06:25:28;98191.19;;;0.42;86.63
74327;BME280;62745;51.060;13.786;2024-01-15T06:27:54;98180.94;;;0.47;86.95
74327;BME280;62745;51.060;13.786;2024-01-15T06:30:19;98197.25;;;0.42;86.36
74327;BME280;62745;51.060;13.786;2024-01-15T06:32:44;98184.03;;;0.50;86.47
74327;BME280;62745;51.060;13.786;2024-01-15T06:35:09;98177.31;;;0.48;86.37
74327;BME280;62745;51.060;13.786;2024-01-15T06:37:36;98197.88;;;0.44;85.62
74327;BME280;62745;51.060;13.786;2024-01-15T06:40:02;98201.31;;;0.45;85.47
74327;BME280;62745;51.060;13.786;2024-01-15T06:42:28;98205.41;;;0.47;85.14
74327;BME280;62745;51.060;13.786;2024-01-15T06:44:53;98187.50;;;0.51;85.76
74327;BME280;62745;51.060;13.786;2024-01-15T06:47:18;98234.94;;;0.49;85.58
74327;BME280;62745;51.060;13.786;2024-01-15T06:49:43;98192.91;;;0.49;85.60
74327;BME280;62745;51.060;13.786;2024-01-15T06:52:09;98193.03;;;0.56;84.09
74327;BME280;62745;51.060;13.786;2024-01-15T06:54:34;98191.94;;;0.65;84.91
74327;BME280;62745;51.060;13.786;2024-01-15T06:56:59;98201.34;;;0.59;83.76
74327;BME280;62745;51.060;13.786;2024-01-15T06:59:25;98233.88;;;0.58;83.83
74327;BME280;62745;51.060;13.786;2024-01-15T07:01:50;98185.59;;;0.59;84.58
74327;BME280;62745;51.060;13.786;2024-01-15T07:04:16;98205.16;;;0.57;83.78
74327;BME280;62745;51.060;13.786;2024-01-15T07:06:41;98198.81;;;0.51;84.45
74327;BME280;62745;51.060;13.786;2024-01-15T07:09:06;98205.16;;;0.57;83.86
74327;BME280;62745;51.060;13.786;2024-01-15T07:11:32;98193.19;;;0.54;83.66
74327;BME280;62745;51.060;13.786;2024-01-15T07:13:58;98190.56;;;0.54;84.07
74327;BME280;62745;51.060;13.786;2024-01-15T07:16:23;98202.72;;;0.55;83.38
74327;BME280;62745;51.060;13.786;2024-01-15T07:18:48;98204.06;;;0.51;83.40
74327;BME280;62745;51.060;13.786;2024-01-15T07:21:14;98217.56;;;0.63;83.86
74327;BME280;62745;51.060;13.786;2024-01-15T07:23:39;98205.69;;;0.67;83.31
74327;BME280;62745;51.060;13.786;2024-01-15T07:26:04;98224.81;;;0.61;83.78
74327;BME280;62745;51.060;13.786;2024-01-15T07:28:30;98239.75;;;0.60;82.32
74327;BME280;62745;51.060;13.786;2024-01-15T07:30:56;98237.41;;;0.66;83.87
74327;BME280;62745;51.060;13.786;2024-01-15T07:33:22;98238.31;;;0.58;83.91
74327;BME280;62745;51.060;13.786;2024-01-15T07:35:47;98246.09;;;0.51;84.83
74327;BME280;62745;51.060;13.786;2024-01-15T07:38:13;98248.81;;;0.58;85.10
74327;BME280;62745;51.060;13.786;2024-01-15T07:40:38;98259.91;;;0.45;85.13
74327;BME280;62745;51.060;13.786;2024-01-15T07:43:03;98252.41;;;0.42;85.54
74327;BME280;62745;51.060;13.786;2024-01-15T07:45:30;98251.13;;;0.38;86.18
74327;BME280;62745;51.060;13.786;2024-01-15T07:47:55;98237.28;;;0.44;84.77
74327;BME280;62745;51.060;13.786;2024-01-15T07:50:21;98236.56;;;0.50;84.37
74327;BME280;62745;51.060;13.786;2024-01-15T07:52:46;98243.56;;;0.58;84.15
74327;BME280;62745;51.060;13.786;2024-01-15T07:55:11;98231.84;;;0.46;83.66
74327;BME280;62745;51.060;13.786;2024-01-15T07:57:37;98227.03;;;0.49;85.31
74327;BME280;62745;51.060;13.786;2024-01-15T08:00:03;98229.63;;;0.57;84.13
74327;BME280;62745;51.060;13.786;2024-01-15T08:02:31;98214.22;;;0.54;83.43
74327;BME280;62745;51.060;13.786;2024-01-15T08:04:57;98220.28;;;0.55;83.35
74327;BME280;62745;51.060;13.786;2024-01-15T08:07:24;98238.41;;;0.65;83.44
74327;BME280;62745;51.060;13.786;2024-01-15T08:09:50;98235.78;;;0.65;82.90
74327;BME280;62745;51.060;13.786;2024-01-15T08:12:16;98239.75;;;0.60;83.10
74327;BME280;62745;51.060;13.786;2024-01-15T08:14:41;98235.44;;;0.68;82.26
74327;BME280;62745;51.060;13.786;2024-01-15T08:17:06;98233.63;;;0.68;82.21
74327;BME280;62745;51.060;13.786;2024-01-15T08:19:32;98233.72;;;0.75;82.43
74327;BME280;62745;51.060;13.786;2024-01-15T08:21:57;98249.03;;;0.71;82.49
74327;BME280;62745;51.060;13.786;2024-01-15T08:24:22;98263.50;;;0.67;82.76
74327;BME280;62745;51.060;13.786;2024-01-15T08:26:47;98246.38;;;0.56;82.34
74327;BME280;62745;51.060;13.786;2024-01-15T08:29:13;98248.72;;;0.66;83.04
74327;BME280;62745;51.060;13.786;2024-01-15T08:31:38;98241.84;;;0.65;82.82
74327;BME280;62745;51.060;13.786;2024-01-15T08:34:03;98256.47;;;0.68;82.33
74327;BME280;62745;51.060;13.786;2024-01-15T08:36:28;98255.16;;;0.64;82.21
74327;BME280;62745;51.060;13.786;2024-01-15T08:38:56;98251.66;;;0.71;82.09
74327;BME280;62745;51.060;13.786;2024-01-15T08:41:22;98249.03;;;0.71;82.30
74327;BME280;62745;51.060;13.786;2024-01-15T08:43:48;98248.09;;;0.64;81.78
74327;BME280;62745;51.060;13.786;2024-01-15T08:46:13;98258.25;;;0.67;82.19
74327;BME280;62745;51.060;13.786;2024-01-15T08:48:40;98236.53;;;0.73;82.06
74327;BME280;62745;51.060;13.786;2024-01-15T08:51:05;98247.03;;;0.73;82.02
74327;BME280;62745;51.060;13.786;2024-01-15T08:53:31;98262.69;;;0.67;81.49
74327;BME280;62745;51.060;13.786;2024-01-15T08:55:56;98231.47;;;0.72;81.30
74327;BME280;62745;51.060;13.786;2024-01-15T08:58:23;98247.69;;;0.75;81.29
74327;BME280;62745;51.060;13.786;2024-01-15T09:00:48;98247.41;;;0.70;81.04
74327;BME280;62745;51.060;13.786;2024-01-15T09:03:13;98294.88;;;0.69;81.22
74327;BME280;62745;51.060;13.786;2024-01-15T09:05:39;98237.81;;;0.77;81.11
74327;BME280;62745;51.060;13.786;2024-01-15T09:08:06;98231.38;;;0.80;80.97
74327;BME280;62745;51.060;13.786;2024-01-15T09:10:31;98241.88;;;0.80;80.26
74327;BME280;62745;51.060;13.786;2024-01-15T09:12:56;98235.63;;;0.81;79.78
74327;BME280;62745;51.060;13.786;2024-01-15T09:15:21;98270.00;;;0.94;79.83
74327;BME280;62745;51.060;13.786;2024-01-15T09:17:46;98252.69;;;1.14;79.52
74327;BME280;62745;51.060;13.786;2024-01-15T09:20:12;98244.28;;;1.19;78.49
74327;BME280;62745;51.060;13.786;2024-01-15T09:22:40;98244.72;;;1.23;77.93
74327;BME280;62745;51.060;13.786;2024-01-15T09:25:08;98239.84;;;1.19;76.55
74327;BME280;62745;51.060;13.786;2024-01-15T09:27:37;98254.13;;;1.17;77.17
74327;BME280;62745;51.060;13.786;2024-01-15T09:30:03;98243.16;;;1.28;78.28
74327;BME280;62745;51.060;13.786;2024-01-15T09:32:29;98271.22;;;1.21;77.52
74327;BME280;62745;51.060;13.786;2024-01-15T09:34:55;98274.84;;;1.20;77.01
74327;BME280;62745;51.060;13.786;2024-01-15T09:37:20;98250.63;;;1.39;76.32
74327;BME280;62745;51.060;13.786;2024-01-15T09:39:46;98264.50;;;1.84;74.51
74327;BME280;62745;51.060;13.786;2024-01-15T09:42:13;98271.56;;;1.84;74.47
74327;BME280;62745;51.060;13.786;2024-01-15T09:44:39;98253.66;;;1.72;74.99
74327;BME280;62745;51.060;13.786;2024-01-15T09:47:05;98261.91;;;1.69;74.36
74327;BME280;62745;51.060;13.786;2024-01-15T09:49:30;98286.88;;;1.59;75.16
74327;BME280;62745;51.060;13.786;2024-01-15T09:51:57;98246.53;;;1.52;75.15
74327;BME280;62745;51.060;13.786;2024-01-15T09:54:23;98251.28;;;1.63;75.27
74327;BME280;62745;51.060;13.786;2024-01-15T09:56:48;98243.66;;;1.68;74.97
74327;BME280;62745;51.060;13.786;2024-01-15T09:59:18;98257.72;;;1.75;74.67
74327;BME280;62745;51.060;13.786;2024-01-15T10:01:44;98246.44;;;1.81;74.17
74327;BME280;62745;51.060;13.786;2024-01-15T10:04:13;98242.38;;;1.78;74.22
74327;BME280;62745;51.060;13.786;2024-01-15T10:06:39;98227.16;;;1.74;75.07
74327;BME280;62745;51.060;13.786;2024-01-15T10:09:07;98250.06;;;1.80;74.66
74327;BME280;62745;51.060;13.786;2024-01-15T10:11:33;98239.97;;;1.62;73.92
74327;BME280;62745;51.060;13.786;2024-01-15T10:13:58;98222.25;;;1.71;73.68
74327;BME280;62745;51.060;13.786;2024-01-15T10:16:23;98247.22;;;1.96;72.14
74327;BME280;62745;51.060;13.786;2024-01-15T10:18:49;98234.16;;;2.03;72.15
74327;BME280;62745;51.060;13.786;2024-01-15T10:21:14;98237.22;;;2.06;71.77
74327;BME280;62745;51.060;13.786;2024-01-15T10:23:41;98228.09;;;2.30;72.26
74327;BME280;62745;51.060;13.786;2024-01-15T10:26:06;98223.66;;;2.52;70.38
74327;BME280;62745;51.060;13.786;2024-01-15T10:28:31;98210.53;;;2.87;69.02
74327;BME280;62745;51.060;13.786;2024-01-15T10:30:58;98211.69;;;2.28;70.26
74327;BME280;62745;51.060;13.786;2024-01-15T10:33:24;98221.84;;;2.53;70.33
74327;BME280;62745;51.060;13.786;2024-01-15T10:36:00;98233.94;;;2.47;70.20
74327;BME280;62745;51.060;13.786;2024-01-15T10:38:25;98254.44;;;2.30;70.06
74327;BME280;62745;51.060;13.786;2024-01-15T10:40:52;98222.03;;;2.30;71.24
74327;BME280;62745;51.060;13.786;2024-01-15T10:43:17;98236.19;;;2.29;71.09
74327;BME280;62745;51.060;13.786;2024-01-15T10:45:46;98223.28;;;2.13;71.53
74327;BME280;62745;51.060;13.786;2024-01-15T10:48:12;98218.16;;;2.04;71.90
74327;BME280;62745;51.060;13.786;2024-01-15T10:50:38;98220.47;;;2.14;71.83
74327;BME280;62745;51.060;13.786;2024-01-15T10:53:04;98223.53;;;1.96;72.03
74327;BME280;62745;51.060;13.786;2024-01-15T10:55:31;98205.09;;;1.96;72.17
74327;BME280;62745;51.060;13.786;2024-01-15T10:57:57;98247.56;;;2.08;71.43
74327;BME280;62745;51.060;13.786;2024-01-15T11:00:23;98229.34;;;1.92;72.49
74327;BME280;62745;51.060;13.786;2024-01-15T11:02:50;98223.22;;;2.06;72.02
74327;BME280;62745;51.060;13.786;2024-01-15T11:05:16;98215.53;;;2.04;71.02
74327;BME280;62745;51.060;13.786;2024-01-15T11:07:43;98238.50;;;1.96;72.21
74327;BME280;62745;51.060;13.786;2024-01-15T11:10:41;98225.47;;;1.88;71.80
74327;BME280;62745;51.060;13.786;2024-01-15T11:13:40;98225.78;;;1.99;72.32
74327;BME280;62745;51.060;13.786;2024-01-15T11:16:10;98232.13;;;2.05;72.38
74327;BME280;62745;51.060;13.786;2024-01-15T11:18:40;98228.59;;;1.98;71.81
74327;BME280;62745;51.060;13.786;2024-01-15T11:23:50;98218.06;;;1.98;72.44
74327;BME280;62745;51.060;13.786;2024-01-15T11:26:53;98252.06;;;1.93;72.91
74327;BME280;62745;51.060;13.786;2024-01-15T11:29:29;98214.97;;;1.73;72.93
74327;BME280;62745;51.060;13.786;2024-01-15T11:34:20;98204.72;;;1.78;72.87
74327;BME280;62745;51.060;13.786;2024-01-15T11:41:52;98203.94;;;1.84;73.51
74327;BME280;62745;51.060;13.786;2024-01-15T11:44:17;98203.84;;;1.92;73.37
74327;BME280;62745;51.060;13.786;2024-01-15T11:49:53;98222.66;;;2.10;72.11
74327;BME280;62745;51.060;13.786;2024-01-15T11:52:23;98203.91;;;2.20;71.33
74327;BME280;62745;51.060;13.786;2024-01-15T11:55:01;98190.56;;;2.22;71.53
74327;BME280;62745;51.060;13.786;2024-01-15T11:57:40;98202.84;;;2.15;70.85
74327;BME280;62745;51.060;13.786;2024-01-15T12:00:08;98223.00;;;2.50;70.71
74327;BME280;62745;51.060;13.786;2024-01-15T12:02:34;98199.13;;;2.30;71.35
74327;BME280;62745;51.060;13.786;2024-01-15T12:04:59;98190.25;;;2.10;71.84
74327;BME280;62745;51.060;13.786;2024-01-15T12:07:24;98191.69;;;2.13;71.82
74327;BME280;62745;51.060;13.786;2024-01-15T12:09:49;98170.91;;;2.24;70.83
74327;BME280;62745;51.060;13.786;2024-01-15T12:12:24;98203.84;;;2.14;71.91
74327;BME280;62745;51.060;13.786;2024-01-15T12:14:52;98198.53;;;2.07;71.85
74327;BME280;62745;51.060;13.786;2024-01-15T12:17:17;98186.47;;;1.98;73.19
74327;BME280;62745;51.060;13.786;2024-01-15T12:19:43;98201.88;;;1.79;75.04
74327;BME280;62745;51.060;13.786;2024-01-15T12:22:08;98194.31;;;1.91;75.64
74327;BME280;62745;51.060;13.786;2024-01-15T12:24:34;98188.09;;;1.99;75.45
74327;BME280;62745;51.060;13.786;2024-01-15T12:27:00;98184.13;;;2.03;74.70
74327;BME280;62745;51.060;13.786;2024-01-15T12:29:26;98191.16;;;1.81;76.43
74327;BME280;62745;51.060;13.786;2024-01-15T12:31:53;98183.34;;;1.88;76.69
74327;BME280;62745;51.060;13.786;2024-01-15T12:34:18;98200.72;;;2.03;75.60
74327;BME280;62745;51.060;13.786;2024-01-15T12:36:46;98182.16;;;1.90;76.98
74327;BME280;62745;51.060;13.786;2024-01-15T12:39:12;98194.69;;;2.09;75.37
74327;BME280;62745;51.060;13.786;2024-01-15T12:41:41;98176.94;;;1.97;77.48
74327;BME280;62745;51.060;13.786;2024-01-15T12:44:06;98171.03;;;2.16;76.31
74327;BME280;62745;51.060;13.786;2024-01-15T12:46:32;98176.84;;;2.05;77.41
74327;BME280;62745;51.060;13.786;2024-01-15T12:48:57;98189.09;;;1.98;77.89
74327;BME280;62745;51.060;13.786;2024-01-15T12:51:26;98173.78;;;1.65;80.33
74327;BME280;62745;51.060;13.786;2024-01-15T12:53:51;98169.28;;;1.59;79.84
74327;BME280;62745;51.060;13.786;2024-01-15T12:56:17;98186.47;;;1.76;80.93
74327;BME280;62745;51.060;13.786;2024-01-15T12:58:42;98210.78;;;1.78;80.96
74327;BME280;62745;51.060;13.786;2024-01-15T13:01:07;98159.03;;;1.49;82.54
74327;BME280;62745;51.060;13.786;2024-01-15T13:03:32;98226.00;;;1.47;82.78
74327;BME280;62745;51.060;13.786;2024-01-15T13:05:59;98179.25;;;1.64;83.17
74327;BME280;62745;51.060;13.786;2024-01-15T13:08:24;98193.66;;;1.68;82.83